sensor_id;sensor_type;location;lat;lon;timestamp;temperature;humidity
12268;DHT22;6196;48.398;11.736;2022-10-17T00:00:48;13.30;99.90
12268;DHT22;6196;48.398;11.736;2022-10-17T00:03:15;13.20;99.90
12268;DHT22;6196;48.398;11.736;2022-10-17T00:05:45;13.20;99.90
12268;DHT22;6196;48.398;11.736;2022-10-17T00:08:14;13.10;99.90
12268;DHT22;6196;48.398;11.736;2022-10-17T00:10:43;13.10;99.90
12268;DHT22;6196;48.398;11.736;2022-10-17T00:13:11;13.20;99.90
12268;DHT22;6196;48.398;11.736;2022-10-17T00:15:41;13.30;99.90
12268;DHT22;6196;48.398;11.736;2022-10-17T00:18:09;13.30;99.90
12268;DHT22;6196;48.398;11.736;2022-10-17T00:20:35;13.20;99.90
12268;DHT22;6196;48.398;11.736;2022-10-17T00:23:02;13.10;99.90
12268;DHT22;6196;48.398;11.736;2022-10-17T00:25:29;13.10;99.90
12268;DHT22;6196;48.398;11.736;2022-10-17T00:27:56;13.10;99.90
12268;DHT22;6196;48.398;11.736;2022-10-17T00:30:23;13.20;99.90
12268;DHT22;6196;48.398;11.736;2022-10-17T00:32:49;13.20;99.90
12268;DHT22;6196;48.398;11.736;2022-10-17T00:35:16;13.40;99.90
12268;DHT22;6196;48.398;11.736;2022-10-17T00:37:43;13.50;99.90
12268;DHT22;6196;48.398;11.736;2022-10-17T00:40:10;13.40;99.90
12268;DHT22;6196;48.398;11.736;2022-10-17T00:42:38;13.50;99.90
12268;DHT22;6196;48.398;11.736;2022-10-17T00:45:24;13.50;99.90
12268;DHT22;6196;48.398;11.736;2022-10-17T00:48:02;13.50;99.90
12268;DHT22;6196;48.398;11.736;2022-10-17T00:50:31;13.40;99.90
12268;DHT22;6196;48.398;11.736;2022-10-17T00:53:01;13.50;99.90
12268;DHT22;6196;48.398;11.736;2022-10-17T00:55:32;13.50;99.90
12268;DHT22;6196;48.398;11.736;2022-10-17T00:58:02;13.50;99.90
12268;DHT22;6196;48.398;11.736;2022-10-17T01:00:30;13.40;99.90
12268;DHT22;6196;48.398;11.736;2022-10-17T01:02:58;13.40;99.90
12268;DHT22;6196;48.398;11.736;2022-10-17T01:05:25;13.50;99.90
12268;DHT22;6196;48.398;11.736;2022-10-17T01:07:52;13.60;99.90
12268;DHT22;6196;48.398;11.736;2022-10-17T01:10:20;13.60;99.90
12268;DHT22;6196;48.398;11.736;2022-10-17T01:16:10;13.60;99.90
12268;DHT22;6196;48.398;11.736;2022-10-17T01:21:50;13.50;99.90
12268;DHT22;6196;48.398;11.736;2022-10-17T01:24:47;13.40;99.90
12268;DHT22;6196;48.398;11.736;2022-10-17T01:39:23;12.50;99.90
12268;DHT22;6196;48.398;11.736;2022-10-17T01:42:14;12.10;99.90
12268;DHT22;6196;48.398;11.736;2022-10-17T01:45:16;11.90;99.90
12268;DHT22;6196;48.398;11.736;2022-10-17T01:47:49;11.70;99.90
12268;DHT22;6196;48.398;11.736;2022-10-17T01:50:27;11.80;99.90
12268;DHT22;6196;48.398;11.736;2022-10-17T01:53:09;11.70;99.90
12268;DHT22;6196;48.398;11.736;2022-10-17T01:55:41;11.80;99.90
12268;DHT22;6196;48.398;11.736;2022-10-17T01:58:12;11.80;99.90
12268;DHT22;6196;48.398;11.736;2022-10-17T02:00:52;11.80;99.90
12268;DHT22;6196;48.398;11.736;2022-10-17T02:03:20;12.00;99.90
12268;DHT22;6196;48.398;11.736;2022-10-17T02:05:47;12.00;99.90
12268;DHT22;6196;48.398;11.736;2022-10-17T02:08:24;11.90;99.90
12268;DHT22;6196;48.398;11.736;2022-10-17T02:11:00;11.90;99.90
12268;DHT22;6196;48.398;11.736;2022-10-17T02:19:49;11.90;99.90
12268;DHT22;6196;48.398;11.736;2022-10-17T02:22:33;11.90;99.90
12268;DHT22;6196;48.398;11.736;2022-10-17T02:25:37;12.00;99.90
12268;DHT22;6196;48.398;11.736;2022-10-17T02:28:26;12.00;99.90
12268;DHT22;6196;48.398;11.736;2022-10-17T02:31:03;12.00;99.90
12268;DHT22;6196;48.398;11.736;2022-10-17T02:34:24;11.90;99.90
12268;DHT22;6196;48.398;11.736;2022-10-17T02:36:37;12.00;99.90
12268;DHT22;6196;48.398;11.736;2022-10-17T02:39:07;12.00;99.90
12268;DHT22;6196;48.398;11.736;2022-10-17T02:41:35;12.00;99.90
12268;DHT22;6196;48.398;11.736;2022-10-17T02:44:04;12.00;99.90
12268;DHT22;6196;48.398;11.736;2022-10-17T02:46:33;11.90;99.90
12268;DHT22;6196;48.398;11.736;2022-10-17T02:49:11;11.90;99.90
12268;DHT22;6196;48.398;11.736;2022-10-17T02:51:56;11.80;99.90
12268;DHT22;6196;48.398;11.736;2022-10-17T02:54:47;11.80;99.90
12268;DHT22;6196;48.398;11.736;2022-10-17T02:57:22;11.70;99.90
12268;DHT22;6196;48.398;11.736;2022-10-17T02:59:54;11.80;99.90
12268;DHT22;6196;48.398;11.736;2022-10-17T03:02:24;11.80;99.90
12268;DHT22;6196;48.398;11.736;2022-10-17T03:04:50;12.00;99.90
12268;DHT22;6196;48.398;11.736;2022-10-17T03:07:17;12.00;99.90
12268;DHT22;6196;48.398;11.736;2022-10-17T03:09:44;11.90;99.90
12268;DHT22;6196;48.398;11.736;2022-10-17T03:12:11;11.80;99.90
12268;DHT22;6196;48.398;11.736;2022-10-17T03:14:38;11.70;99.90
12268;DHT22;6196;48.398;11.736;2022-10-17T03:17:04;11.60;99.90
12268;DHT22;6196;48.398;11.736;2022-10-17T03:19:31;11.60;99.90
12268;DHT22;6196;48.398;11.736;2022-10-17T03:21:58;11.60;99.90
12268;DHT22;6196;48.398;11.736;2022-10-17T03:24:25;11.60;99.90
12268;DHT22;6196;48.398;11.736;2022-10-17T03:26:52;11.60;99.90
12268;DHT22;6196;48.398;11.736;2022-10-17T03:29:18;11.60;99.90
12268;DHT22;6196;48.398;11.736;2022-10-17T03:31:45;11.50;99.90
12268;DHT22;6196;48.398;11.736;2022-10-17T03:34:12;11.40;99.90
12268;DHT22;6196;48.398;11.736;2022-10-17T03:36:42;11.30;99.90
12268;DHT22;6196;48.398;11.736;2022-10-17T03:39:09;11.20;99.90
12268;DHT22;6196;48.398;11.736;2022-10-17T03:41:36;11.20;99.90
12268;DHT22;6196;48.398;11.736;2022-10-17T03:44:03;11.10;99.90
12268;DHT22;6196;48.398;11.736;2022-10-17T03:46:29;11.10;99.90
12268;DHT22;6196;48.398;11.736;2022-10-17T03:48:56;11.10;99.90
12268;DHT22;6196;48.398;11.736;2022-10-17T03:51:23;11.00;99.90
12268;DHT22;6196;48.398;11.736;2022-10-17T03:53:50;11.10;99.90
12268;DHT22;6196;48.398;11.736;2022-10-17T03:56:19;11.10;99.90
12268;DHT22;6196;48.398;11.736;2022-10-17T03:58:48;11.10;99.90
12268;DHT22;6196;48.398;11.736;2022-10-17T04:01:16;11.10;99.90
12268;DHT22;6196;48.398;11.736;2022-10-17T04:03:48;11.20;99.90
12268;DHT22;6196;48.398;11.736;2022-10-17T04:06:16;11.10;99.90
12268;DHT22;6196;48.398;11.736;2022-10-17T04:08:43;11.10;99.90
12268;DHT22;6196;48.398;11.736;2022-10-17T04:11:13;11.10;99.90
12268;DHT22;6196;48.398;11.736;2022-10-17T04:13:42;11.20;99.90
12268;DHT22;6196;48.398;11.736;2022-10-17T04:16:12;11.20;99.90
12268;DHT22;6196;48.398;11.736;2022-10-17T04:18:44;11.30;99.90
12268;DHT22;6196;48.398;11.736;2022-10-17T04:21:11;11.30;99.90
12268;DHT22;6196;48.398;11.736;2022-10-17T04:23:38;11.20;99.90
12268;DHT22;6196;48.398;11.736;2022-10-17T04:26:05;11.00;99.90
12268;DHT22;6196;48.398;11.736;2022-10-17T04:28:33;10.90;99.90
12268;DHT22;6196;48.398;11.736;2022-10-17T04:31:09;10.80;99.90
12268;DHT22;6196;48.398;11.736;2022-10-17T04:33:37;10.70;99.90
12268;DHT22;6196;48.398;11.736;2022-10-17T04:36:10;10.60;99.90
12268;DHT22;6196;48.398;11.736;2022-10-17T04:38:38;10.60;99.90
12268;DHT22;6196;48.398;11.736;2022-10-17T04:41:07;10.60;99.90
12268;DHT22;6196;48.398;11.736;2022-10-17T04:43:38;10.50;99.90
12268;DHT22;6196;48.398;11.736;2022-10-17T04:46:10;10.50;99.90
12268;DHT22;6196;48.398;11.736;2022-10-17T04:48:39;10.40;99.90
12268;DHT22;6196;48.398;11.736;2022-10-17T04:51:11;10.30;99.90
12268;DHT22;6196;48.398;11.736;2022-10-17T04:53:40;10.30;99.90
12268;DHT22;6196;48.398;11.736;2022-10-17T04:56:12;10.30;99.90
12268;DHT22;6196;48.398;11.736;2022-10-17T04:58:42;10.20;99.90
12268;DHT22;6196;48.398;11.736;2022-10-17T05:01:15;10.20;99.90
12268;DHT22;6196;48.398;11.736;2022-10-17T05:03:43;10.10;99.90
12268;DHT22;6196;48.398;11.736;2022-10-17T05:06:13;10.00;99.90
12268;DHT22;6196;48.398;11.736;2022-10-17T05:08:42;10.00;99.90
12268;DHT22;6196;48.398;11.736;2022-10-17T05:11:22;9.90;99.90
12268;DHT22;6196;48.398;11.736;2022-10-17T05:13:53;9.90;99.90
12268;DHT22;6196;48.398;11.736;2022-10-17T05:16:22;9.80;99.90
12268;DHT22;6196;48.398;11.736;2022-10-17T05:18:51;9.80;99.90
12268;DHT22;6196;48.398;11.736;2022-10-17T05:21:20;9.70;99.90
12268;DHT22;6196;48.398;11.736;2022-10-17T05:23:47;9.70;99.90
12268;DHT22;6196;48.398;11.736;2022-10-17T05:26:15;9.60;99.90
12268;DHT22;6196;48.398;11.736;2022-10-17T05:28:41;9.50;99.90
12268;DHT22;6196;48.398;11.736;2022-10-17T05:31:09;9.50;99.90
12268;DHT22;6196;48.398;11.736;2022-10-17T05:33:38;9.50;99.90
12268;DHT22;6196;48.398;11.736;2022-10-17T05:36:06;9.50;99.90
12268;DHT22;6196;48.398;11.736;2022-10-17T05:38:33;9.60;99.90
12268;DHT22;6196;48.398;11.736;2022-10-17T05:41:02;9.70;99.90
12268;DHT22;6196;48.398;11.736;2022-10-17T05:43:29;9.80;99.90
12268;DHT22;6196;48.398;11.736;2022-10-17T05:45:57;9.70;99.90
12268;DHT22;6196;48.398;11.736;2022-10-17T05:48:24;9.60;99.90
12268;DHT22;6196;48.398;11.736;2022-10-17T05:51:06;9.50;99.90
12268;DHT22;6196;48.398;11.736;2022-10-17T05:53:36;9.50;99.90
12268;DHT22;6196;48.398;11.736;2022-10-17T05:56:06;9.40;99.90
12268;DHT22;6196;48.398;11.736;2022-10-17T05:58:35;9.40;99.90
12268;DHT22;6196;48.398;11.736;2022-10-17T06:01:16;9.40;99.90
12268;DHT22;6196;48.398;11.736;2022-10-17T06:03:43;9.40;99.90
12268;DHT22;6196;48.398;11.736;2022-10-17T06:06:11;9.40;99.90
12268;DHT22;6196;48.398;11.736;2022-10-17T06:08:39;9.40;99.90
12268;DHT22;6196;48.398;11.736;2022-10-17T06:11:06;9.40;99.90
12268;DHT22;6196;48.398;11.736;2022-10-17T06:13:37;9.30;99.90
12268;DHT22;6196;48.398;11.736;2022-10-17T06:16:05;9.20;99.90
12268;DHT22;6196;48.398;11.736;2022-10-17T06:18:32;9.20;99.90
12268;DHT22;6196;48.398;11.736;2022-10-17T06:21:07;9.30;99.90
12268;DHT22;6196;48.398;11.736;2022-10-17T06:23:35;9.40;99.90
12268;DHT22;6196;48.398;11.736;2022-10-17T06:26:04;9.40;99.90
12268;DHT22;6196;48.398;11.736;2022-10-17T06:28:32;9.40;99.90
12268;DHT22;6196;48.398;11.736;2022-10-17T06:31:07;9.40;99.90
12268;DHT22;6196;48.398;11.736;2022-10-17T06:33:36;9.40;99.90
12268;DHT22;6196;48.398;11.736;2022-10-17T06:36:04;9.50;99.90
12268;DHT22;6196;48.398;11.736;2022-10-17T06:38:35;9.60;99.90
12268;DHT22;6196;48.398;11.736;2022-10-17T06:41:13;9.80;99.90
12268;DHT22;6196;48.398;11.736;2022-10-17T06:43:42;10.00;99.90
12268;DHT22;6196;48.398;11.736;2022-10-17T06:46:16;10.10;99.90
12268;DHT22;6196;48.398;11.736;2022-10-17T06:48:44;10.20;99.90
12268;DHT22;6196;48.398;11.736;2022-10-17T06:51:11;10.40;99.90
12268;DHT22;6196;48.398;11.736;2022-10-17T06:53:39;10.80;99.90
12268;DHT22;6196;48.398;11.736;2022-10-17T06:56:07;11.10;99.90
12268;DHT22;6196;48.398;11.736;2022-10-17T06:58:36;11.40;99.90
12268;DHT22;6196;48.398;11.736;2022-10-17T07:01:10;11.80;99.90
12268;DHT22;6196;48.398;11.736;2022-10-17T07:03:38;11.90;99.90
12268;DHT22;6196;48.398;11.736;2022-10-17T07:06:06;12.10;99.90
12268;DHT22;6196;48.398;11.736;2022-10-17T07:08:34;12.30;99.90
12268;DHT22;6196;48.398;11.736;2022-10-17T07:11:11;12.70;99.90
12268;DHT22;6196;48.398;11.736;2022-10-17T07:13:41;13.10;99.90
12268;DHT22;6196;48.398;11.736;2022-10-17T07:16:09;13.40;99.90
12268;DHT22;6196;48.398;11.736;2022-10-17T07:18:36;13.70;99.90
12268;DHT22;6196;48.398;11.736;2022-10-17T07:21:04;14.00;99.90
12268;DHT22;6196;48.398;11.736;2022-10-17T07:23:31;14.30;99.90
12268;DHT22;6196;48.398;11.736;2022-10-17T07:26:08;14.60;99.90
12268;DHT22;6196;48.398;11.736;2022-10-17T07:28:38;14.90;99.90
12268;DHT22;6196;48.398;11.736;2022-10-17T07:31:08;15.10;99.90
12268;DHT22;6196;48.398;11.736;2022-10-17T07:33:37;15.40;99.90
12268;DHT22;6196;48.398;11.736;2022-10-17T07:36:05;15.70;99.90
12268;DHT22;6196;48.398;11.736;2022-10-17T07:38:32;16.10;99.90
12268;DHT22;6196;48.398;11.736;2022-10-17T07:41:01;16.40;99.90
12268;DHT22;6196;48.398;11.736;2022-10-17T07:43:30;16.80;99.90
12268;DHT22;6196;48.398;11.736;2022-10-17T07:45:59;16.90;99.90
12268;DHT22;6196;48.398;11.736;2022-10-17T07:48:27;17.20;99.90
12268;DHT22;6196;48.398;11.736;2022-10-17T07:50:54;17.50;99.90
12268;DHT22;6196;48.398;11.736;2022-10-17T07:53:21;18.00;99.90
12268;DHT22;6196;48.398;11.736;2022-10-17T07:55:48;18.10;99.90
12268;DHT22;6196;48.398;11.736;2022-10-17T07:58:15;18.30;99.90
12268;DHT22;6196;48.398;11.736;2022-10-17T08:00:42;18.80;99.90
12268;DHT22;6196;48.398;11.736;2022-10-17T08:03:09;18.90;99.90
12268;DHT22;6196;48.398;11.736;2022-10-17T08:05:36;19.20;99.90
12268;DHT22;6196;48.398;11.736;2022-10-17T08:08:03;18.90;99.90
12268;DHT22;6196;48.398;11.736;2022-10-17T08:10:30;19.30;99.90
12268;DHT22;6196;48.398;11.736;2022-10-17T08:12:57;19.80;99.90
12268;DHT22;6196;48.398;11.736;2022-10-17T08:15:24;19.90;99.90
12268;DHT22;6196;48.398;11.736;2022-10-17T08:17:57;19.50;99.90
12268;DHT22;6196;48.398;11.736;2022-10-17T08:20:25;20.10;99.90
12268;DHT22;6196;48.398;11.736;2022-10-17T08:22:53;19.50;99.90
12268;DHT22;6196;48.398;11.736;2022-10-17T08:25:21;19.90;99.90
12268;DHT22;6196;48.398;11.736;2022-10-17T08:27:48;19.50;99.90
12268;DHT22;6196;48.398;11.736;2022-10-17T08:30:15;19.40;99.90
12268;DHT22;6196;48.398;11.736;2022-10-17T08:32:43;19.90;99.90
12268;DHT22;6196;48.398;11.736;2022-10-17T08:35:10;20.30;99.90
12268;DHT22;6196;48.398;11.736;2022-10-17T08:37:37;19.70;99.90
12268;DHT22;6196;48.398;11.736;2022-10-17T08:40:04;19.20;99.90
12268;DHT22;6196;48.398;11.736;2022-10-17T08:42:44;19.70;99.90
12268;DHT22;6196;48.398;11.736;2022-10-17T08:45:53;20.00;99.90
12268;DHT22;6196;48.398;11.736;2022-10-17T08:48:23;20.50;99.90
12268;DHT22;6196;48.398;11.736;2022-10-17T08:50:55;19.80;99.90
12268;DHT22;6196;48.398;11.736;2022-10-17T08:53:41;20.20;99.90
12268;DHT22;6196;48.398;11.736;2022-10-17T08:56:18;20.90;99.90
12268;DHT22;6196;48.398;11.736;2022-10-17T08:59:14;20.00;99.90
12268;DHT22;6196;48.398;11.736;2022-10-17T09:01:49;19.80;99.90
12268;DHT22;6196;48.398;11.736;2022-10-17T09:07:31;19.80;99.90
12268;DHT22;6196;48.398;11.736;2022-10-17T09:13:14;19.90;99.90
12268;DHT22;6196;48.398;11.736;2022-10-17T09:18:22;21.10;99.90
12268;DHT22;6196;48.398;11.736;2022-10-17T09:20:56;21.00;99.90
12268;DHT22;6196;48.398;11.736;2022-10-17T09:23:46;21.40;99.90
12268;DHT22;6196;48.398;11.736;2022-10-17T09:26:25;21.50;99.90
12268;DHT22;6196;48.398;11.736;2022-10-17T09:28:54;20.30;99.90
12268;DHT22;6196;48.398;11.736;2022-10-17T09:31:29;20.10;99.90
12268;DHT22;6196;48.398;11.736;2022-10-17T09:34:01;20.50;99.90
12268;DHT22;6196;48.398;11.736;2022-10-17T09:36:34;21.10;99.90
12268;DHT22;6196;48.398;11.736;2022-10-17T09:39:10;21.60;99.90
12268;DHT22;6196;48.398;11.736;2022-10-17T09:41:43;21.80;99.90
12268;DHT22;6196;48.398;11.736;2022-10-17T09:47:33;21.90;99.90
12268;DHT22;6196;48.398;11.736;2022-10-17T09:50:11;22.50;99.90
12268;DHT22;6196;48.398;11.736;2022-10-17T09:52:43;22.90;99.90
12268;DHT22;6196;48.398;11.736;2022-10-17T09:55:20;23.00;99.90
12268;DHT22;6196;48.398;11.736;2022-10-17T09:58:05;22.60;99.90
12268;DHT22;6196;48.398;11.736;2022-10-17T10:03:11;23.70;99.90
12268;DHT22;6196;48.398;11.736;2022-10-17T10:08:34;24.10;99.90
12268;DHT22;6196;48.398;11.736;2022-10-17T10:11:06;23.50;99.90
12268;DHT22;6196;48.398;11.736;2022-10-17T10:13:39;24.00;99.90
12268;DHT22;6196;48.398;11.736;2022-10-17T10:16:31;24.10;99.90
12268;DHT22;6196;48.398;11.736;2022-10-17T10:18:58;24.10;99.90
12268;DHT22;6196;48.398;11.736;2022-10-17T10:21:26;25.60;99.90
12268;DHT22;6196;48.398;11.736;2022-10-17T10:26:48;26.20;99.90
12268;DHT22;6196;48.398;11.736;2022-10-17T10:29:31;25.00;99.90
12268;DHT22;6196;48.398;11.736;2022-10-17T10:34:35;25.40;99.90
12268;DHT22;6196;48.398;11.736;2022-10-17T10:37:27;26.10;99.90
12268;DHT22;6196;48.398;11.736;2022-10-17T10:40:02;26.60;99.90
12268;DHT22;6196;48.398;11.736;2022-10-17T10:42:38;27.40;99.90
12268;DHT22;6196;48.398;11.736;2022-10-17T10:45:18;27.70;99.90
12268;DHT22;6196;48.398;11.736;2022-10-17T10:48:25;26.20;99.90
12268;DHT22;6196;48.398;11.736;2022-10-17T10:51:17;26.40;99.90
12268;DHT22;6196;48.398;11.736;2022-10-17T10:54:10;26.00;99.90
12268;DHT22;6196;48.398;11.736;2022-10-17T10:57:00;27.10;99.90
12268;DHT22;6196;48.398;11.736;2022-10-17T10:59:57;27.60;99.90
12268;DHT22;6196;48.398;11.736;2022-10-17T11:02:39;26.70;99.90
12268;DHT22;6196;48.398;11.736;2022-10-17T11:05:13;27.10;99.90
12268;DHT22;6196;48.398;11.736;2022-10-17T11:07:52;28.00;99.90
12268;DHT22;6196;48.398;11.736;2022-10-17T11:10:59;28.40;99.90
12268;DHT22;6196;48.398;11.736;2022-10-17T11:13:35;28.60;99.90
12268;DHT22;6196;48.398;11.736;2022-10-17T11:16:17;29.10;99.90
12268;DHT22;6196;48.398;11.736;2022-10-17T11:19:12;28.50;99.90
12268;DHT22;6196;48.398;11.736;2022-10-17T11:25:19;29.80;99.90
12268;DHT22;6196;48.398;11.736;2022-10-17T11:27:53;30.60;99.90
12268;DHT22;6196;48.398;11.736;2022-10-17T11:30:22;29.70;99.90
12268;DHT22;6196;48.398;11.736;2022-10-17T11:32:56;28.20;99.90
12268;DHT22;6196;48.398;11.736;2022-10-17T11:35:39;28.90;99.90
12268;DHT22;6196;48.398;11.736;2022-10-17T11:41:12;29.00;99.90
12268;DHT22;6196;48.398;11.736;2022-10-17T11:46:43;31.20;99.90
12268;DHT22;6196;48.398;11.736;2022-10-17T11:49:19;32.00;99.90
12268;DHT22;6196;48.398;11.736;2022-10-17T11:52:00;31.70;99.60
12268;DHT22;6196;48.398;11.736;2022-10-17T11:54:44;31.40;99.10
12268;DHT22;6196;48.398;11.736;2022-10-17T11:57:40;32.60;98.00
12268;DHT22;6196;48.398;11.736;2022-10-17T12:01:14;32.20;98.10
12268;DHT22;6196;48.398;11.736;2022-10-17T12:12:34;29.80;96.30
12268;DHT22;6196;48.398;11.736;2022-10-17T12:17:57;31.40;94.90
12268;DHT22;6196;48.398;11.736;2022-10-17T12:20:33;31.10;94.30
12268;DHT22;6196;48.398;11.736;2022-10-17T12:23:05;30.20;95.20
12268;DHT22;6196;48.398;11.736;2022-10-17T12:25:54;31.30;94.50
12268;DHT22;6196;48.398;11.736;2022-10-17T12:31:20;33.90;90.80
12268;DHT22;6196;48.398;11.736;2022-10-17T12:33:59;34.10;90.20
12268;DHT22;6196;48.398;11.736;2022-10-17T12:49:47;35.20;86.60
12268;DHT22;6196;48.398;11.736;2022-10-17T12:58:05;35.30;83.10
12268;DHT22;6196;48.398;11.736;2022-10-17T13:00:57;35.20;82.60
12268;DHT22;6196;48.398;11.736;2022-10-17T13:03:46;35.80;80.80
12268;DHT22;6196;48.398;11.736;2022-10-17T13:06:27;36.20;81.30
12268;DHT22;6196;48.398;11.736;2022-10-17T13:09:01;36.50;80.90
12268;DHT22;6196;48.398;11.736;2022-10-17T13:11:33;34.30;82.50
12268;DHT22;6196;48.398;11.736;2022-10-17T13:14:02;34.30;84.30
12268;DHT22;6196;48.398;11.736;2022-10-17T13:16:38;34.70;84.50
12268;DHT22;6196;48.398;11.736;2022-10-17T13:19:16;35.40;82.20
12268;DHT22;6196;48.398;11.736;2022-10-17T13:21:50;35.90;80.90
12268;DHT22;6196;48.398;11.736;2022-10-17T13:24:32;36.40;78.80
12268;DHT22;6196;48.398;11.736;2022-10-17T13:27:05;34.50;79.70
12268;DHT22;6196;48.398;11.736;2022-10-17T13:29:47;34.80;82.80
12268;DHT22;6196;48.398;11.736;2022-10-17T13:32:14;35.90;79.80
12268;DHT22;6196;48.398;11.736;2022-10-17T13:34:41;37.30;78.10
12268;DHT22;6196;48.398;11.736;2022-10-17T13:37:13;37.20;76.00
12268;DHT22;6196;48.398;11.736;2022-10-17T13:39:43;36.50;75.70
12268;DHT22;6196;48.398;11.736;2022-10-17T13:42:27;36.30;76.80
12268;DHT22;6196;48.398;11.736;2022-10-17T13:44:56;37.00;75.70
12268;DHT22;6196;48.398;11.736;2022-10-17T13:47:26;36.50;76.90
12268;DHT22;6196;48.398;11.736;2022-10-17T13:49:56;37.30;75.80
12268;DHT22;6196;48.398;11.736;2022-10-17T13:52:26;35.80;74.30
12268;DHT22;6196;48.398;11.736;2022-10-17T13:55:11;35.40;76.90
12268;DHT22;6196;48.398;11.736;2022-10-17T13:57:43;35.20;77.00
12268;DHT22;6196;48.398;11.736;2022-10-17T14:00:17;34.90;77.30
12268;DHT22;6196;48.398;11.736;2022-10-17T14:02:46;35.00;79.50
12268;DHT22;6196;48.398;11.736;2022-10-17T14:05:19;34.80;79.10
12268;DHT22;6196;48.398;11.736;2022-10-17T14:07:54;34.20;80.10
12268;DHT22;6196;48.398;11.736;2022-10-17T14:10:40;34.10;79.40
12268;DHT22;6196;48.398;11.736;2022-10-17T14:15:47;33.30;79.60
12268;DHT22;6196;48.398;11.736;2022-10-17T14:18:19;32.10;81.50
12268;DHT22;6196;48.398;11.736;2022-10-17T14:20:49;31.10;86.80
12268;DHT22;6196;48.398;11.736;2022-10-17T14:23:39;30.80;86.80
12268;DHT22;6196;48.398;11.736;2022-10-17T14:26:22;31.00;87.40
12268;DHT22;6196;48.398;11.736;2022-10-17T14:32:04;31.40;87.50
12268;DHT22;6196;48.398;11.736;2022-10-17T14:34:36;32.00;86.10
12268;DHT22;6196;48.398;11.736;2022-10-17T14:37:10;32.70;84.50
12268;DHT22;6196;48.398;11.736;2022-10-17T14:39:38;33.20;81.20
12268;DHT22;6196;48.398;11.736;2022-10-17T14:42:05;33.80;80.30
12268;DHT22;6196;48.398;11.736;2022-10-17T14:44:34;34.50;79.70
12268;DHT22;6196;48.398;11.736;2022-10-17T14:47:03;35.10;80.10
12268;DHT22;6196;48.398;11.736;2022-10-17T14:52:35;34.70;80.60
12268;DHT22;6196;48.398;11.736;2022-10-17T14:55:25;33.90;81.40
12268;DHT22;6196;48.398;11.736;2022-10-17T14:57:53;33.20;82.20
12268;DHT22;6196;48.398;11.736;2022-10-17T15:00:21;32.80;83.40
12268;DHT22;6196;48.398;11.736;2022-10-17T15:02:49;32.70;83.70
12268;DHT22;6196;48.398;11.736;2022-10-17T15:05:17;32.60;82.90
12268;DHT22;6196;48.398;11.736;2022-10-17T15:07:45;31.30;85.30
12268;DHT22;6196;48.398;11.736;2022-10-17T15:10:31;29.60;86.90
12268;DHT22;6196;48.398;11.736;2022-10-17T15:13:00;28.20;90.10
12268;DHT22;6196;48.398;11.736;2022-10-17T15:15:48;27.10;91.80
12268;DHT22;6196;48.398;11.736;2022-10-17T15:18:17;26.30;92.90
12268;DHT22;6196;48.398;11.736;2022-10-17T15:20:44;25.60;94.20
12268;DHT22;6196;48.398;11.736;2022-10-17T15:23:11;24.90;94.70
12268;DHT22;6196;48.398;11.736;2022-10-17T15:25:38;24.30;97.20
12268;DHT22;6196;48.398;11.736;2022-10-17T15:28:05;23.90;98.40
12268;DHT22;6196;48.398;11.736;2022-10-17T15:30:35;23.50;99.20
12268;DHT22;6196;48.398;11.736;2022-10-17T15:33:02;23.30;99.90
12268;DHT22;6196;48.398;11.736;2022-10-17T15:35:29;23.20;99.90
12268;DHT22;6196;48.398;11.736;2022-10-17T15:37:56;23.00;99.90
12268;DHT22;6196;48.398;11.736;2022-10-17T15:40:25;22.80;99.90
12268;DHT22;6196;48.398;11.736;2022-10-17T15:42:54;22.30;99.90
12268;DHT22;6196;48.398;11.736;2022-10-17T15:45:22;22.20;99.90
12268;DHT22;6196;48.398;11.736;2022-10-17T15:47:51;21.90;99.90
12268;DHT22;6196;48.398;11.736;2022-10-17T15:50:20;21.50;99.90
12268;DHT22;6196;48.398;11.736;2022-10-17T15:52:48;21.20;99.90
12268;DHT22;6196;48.398;11.736;2022-10-17T15:55:18;20.80;99.90
12268;DHT22;6196;48.398;11.736;2022-10-17T15:57:46;20.60;99.90
12268;DHT22;6196;48.398;11.736;2022-10-17T16:00:15;20.30;99.90
12268;DHT22;6196;48.398;11.736;2022-10-17T16:02:44;20.10;99.90
12268;DHT22;6196;48.398;11.736;2022-10-17T16:05:21;20.10;99.90
12268;DHT22;6196;48.398;11.736;2022-10-17T16:07:52;20.00;99.90
12268;DHT22;6196;48.398;11.736;2022-10-17T16:10:20;20.00;99.90
12268;DHT22;6196;48.398;11.736;2022-10-17T16:12:48;19.90;99.90
12268;DHT22;6196;48.398;11.736;2022-10-17T16:15:19;19.80;99.90
12268;DHT22;6196;48.398;11.736;2022-10-17T16:17:53;19.70;99.90
12268;DHT22;6196;48.398;11.736;2022-10-17T16:20:22;19.60;99.90
12268;DHT22;6196;48.398;11.736;2022-10-17T16:22:49;19.50;99.90
12268;DHT22;6196;48.398;11.736;2022-10-17T16:25:22;19.50;99.90
12268;DHT22;6196;48.398;11.736;2022-10-17T16:27:53;19.30;99.90
12268;DHT22;6196;48.398;11.736;2022-10-17T16:30:22;19.20;99.90
12268;DHT22;6196;48.398;11.736;2022-10-17T16:32:51;19.00;99.90
12268;DHT22;6196;48.398;11.736;2022-10-17T16:35:22;18.90;99.90
12268;DHT22;6196;48.398;11.736;2022-10-17T16:37:50;18.80;99.90
12268;DHT22;6196;48.398;11.736;2022-10-17T16:40:17;18.60;99.90
12268;DHT22;6196;48.398;11.736;2022-10-17T16:42:44;18.60;99.90
12268;DHT22;6196;48.398;11.736;2022-10-17T16:45:17;18.40;99.90
12268;DHT22;6196;48.398;11.736;2022-10-17T16:47:45;18.20;99.90
12268;DHT22;6196;48.398;11.736;2022-10-17T16:50:13;18.00;99.90
12268;DHT22;6196;48.398;11.736;2022-10-17T16:52:40;17.90;99.90
12268;DHT22;6196;48.398;11.736;2022-10-17T16:55:08;17.80;99.90
12268;DHT22;6196;48.398;11.736;2022-10-17T16:57:35;17.80;99.90
12268;DHT22;6196;48.398;11.736;2022-10-17T17:00:04;17.70;99.90
12268;DHT22;6196;48.398;11.736;2022-10-17T17:02:31;17.70;99.90
12268;DHT22;6196;48.398;11.736;2022-10-17T17:04:59;17.70;99.90
12268;DHT22;6196;48.398;11.736;2022-10-17T17:07:26;17.70;99.90
12268;DHT22;6196;48.398;11.736;2022-10-17T17:09:55;17.60;99.90
12268;DHT22;6196;48.398;11.736;2022-10-17T17:12:22;17.50;99.90
12268;DHT22;6196;48.398;11.736;2022-10-17T17:14:49;17.40;99.90
12268;DHT22;6196;48.398;11.736;2022-10-17T17:17:16;17.30;99.90
12268;DHT22;6196;48.398;11.736;2022-10-17T17:20:04;17.10;99.90
12268;DHT22;6196;48.398;11.736;2022-10-17T17:22:31;16.90;99.90
12268;DHT22;6196;48.398;11.736;2022-10-17T17:24:58;16.70;99.90
12268;DHT22;6196;48.398;11.736;2022-10-17T17:27:28;16.70;99.90
12268;DHT22;6196;48.398;11.736;2022-10-17T17:29:56;16.70;99.90
12268;DHT22;6196;48.398;11.736;2022-10-17T17:32:22;16.60;99.90
12268;DHT22;6196;48.398;11.736;2022-10-17T17:34:49;16.50;99.90
12268;DHT22;6196;48.398;11.736;2022-10-17T17:37:16;16.30;99.90
12268;DHT22;6196;48.398;11.736;2022-10-17T17:39:43;16.30;99.90
12268;DHT22;6196;48.398;11.736;2022-10-17T17:42:10;16.30;99.90
12268;DHT22;6196;48.398;11.736;2022-10-17T17:44:37;16.30;99.90